Time;durP1;ratioP1;P1;durP2;ratioP2;P2;SDS_P1;SDS_P2;PMS_P1;PMS_P2;Temp;Humidity;BMP_temperature;BMP_pressure;BME280_temperature;BME280_humidity;BME280_pressure;Samples;Min_cycle;Max_cycle;Signal;HPM_P1;HPM_P2
2021/12/29 00:02:22;;;;;;;25.10;15.40;;;;;;;-2.31;68.49;99472.36;102693;1326;22589;-84
2021/12/29 00:04:49;;;;;;;25.80;15.30;;;;;;;-2.31;68.48;99473.56;102657;1325;22729;-78
2021/12/29 00:07:17;;;;;;;27.50;15.00;;;;;;;-2.28;68.62;99476.23;102772;1327;22547;-80
2021/12/29 00:09:44;;;;;;;28.40;16.70;;;;;;;-2.23;68.54;99479.98;103257;1325;22572;-78
2021/12/29 00:12:10;;;;;;;23.30;14.30;;;;;;;-2.25;68.25;99470.43;103171;1322;25528;-80
2021/12/29 00:14:37;;;;;;;31.10;17.00;;;;;;;-2.28;68.24;99468.61;103204;1323;23950;-79
2021/12/29 00:17:04;;;;;;;26.00;15.50;;;;;;;-2.29;68.26;99460.86;102789;1325;25558;-80
2021/12/29 00:19:31;;;;;;;25.30;15.00;;;;;;;-2.30;68.23;99465.83;103007;1324;24291;-80
2021/12/29 00:21:59;;;;;;;23.30;14.90;;;;;;;-2.31;68.34;99469.94;103114;1325;24254;-83
2021/12/29 00:24:26;;;;;;;26.50;16.10;;;;;;;-2.36;68.10;99467.05;102824;1325;23075;-80
2021/12/29 00:26:53;;;;;;;27.40;15.80;;;;;;;-2.37;68.16;99469.05;103014;1322;25758;-81
2021/12/29 00:29:20;;;;;;;24.40;15.20;;;;;;;-2.37;68.08;99470.61;102947;1322;22680;-81
2021/12/29 00:31:56;;;;;;;28.90;16.90;;;;;;;-2.42;68.27;99470.46;103087;1322;22580;-81
2021/12/29 00:34:42;;;;;;;25.40;15.00;;;;;;;-2.44;68.34;99468.19;103156;1319;22586;-82
2021/12/29 00:37:28;;;;;;;22.80;14.10;;;;;;;-2.43;68.32;99466.31;104277;1316;24247;-81
2021/12/29 00:40:14;;;;;;;22.60;14.80;;;;;;;-2.41;68.53;99472.24;103138;1318;25235;-83
2021/12/29 00:42:59;;;;;;;24.40;14.00;;;;;;;-2.38;68.28;99470.94;103091;1319;24193;-79
2021/12/29 00:45:55;;;;;;;24.50;15.20;;;;;;;-2.43;68.16;99472.19;103254;1321;22580;-78
2021/12/29 00:48:30;;;;;;;26.00;15.80;;;;;;;-2.41;68.44;99479.30;103419;1321;24224;-81
2021/12/29 00:50:57;;;;;;;25.10;15.70;;;;;;;-2.42;68.39;99483.44;102948;1322;24240;-79
2021/12/29 00:53:24;;;;;;;26.20;15.30;;;;;;;-2.47;68.17;99479.32;103139;1322;25362;-79
2021/12/29 00:55:52;;;;;;;28.90;16.80;;;;;;;-2.52;68.19;99473.29;102885;1324;25545;-78
2021/12/29 00:58:24;;;;;;;27.60;16.90;;;;;;;-2.52;68.39;99476.94;103083;1323;24373;-77
2021/12/29 01:00:51;;;;;;;25.80;16.70;;;;;;;-2.50;68.35;99476.31;102906;1322;22812;-79
2021/12/29 01:03:18;;;;;;;26.20;16.50;;;;;;;-2.46;68.41;99475.36;103191;1325;23945;-80
2021/12/29 01:05:45;;;;;;;25.70;15.80;;;;;;;-2.43;68.39;99477.17;103276;1324;25438;-78
2021/12/29 01:08:13;;;;;;;24.60;15.50;;;;;;;-2.45;68.27;99480.74;102534;1329;23566;-78
2021/12/29 01:10:41;;;;;;;26.70;17.80;;;;;;;-2.44;68.45;99483.54;102701;1329;23186;-78
2021/12/29 01:13:34;;;;;;;27.50;15.50;;;;;;;-2.39;68.52;99484.17;102505;1329;22675;-79
2021/12/29 01:18:34;;;;;;;24.30;15.10;;;;;;;-2.39;68.47;99487.30;102884;1329;25562;-78
2021/12/29 01:21:02;;;;;;;28.40;17.10;;;;;;;-2.36;68.25;99490.33;102638;1330;25383;-78
2021/12/29 01:23:32;;;;;;;19.20;12.50;;;;;;;-2.38;68.35;99491.83;102602;1329;22789;-80
2021/12/29 01:25:59;;;;;;;22.10;13.00;;;;;;;-2.37;68.21;99488.73;102956;1325;25342;-78
2021/12/29 01:28:26;;;;;;;26.90;15.30;;;;;;;-2.42;68.29;99487.90;102937;1327;22798;-80
2021/12/29 01:30:54;;;;;;;26.50;16.00;;;;;;;-2.38;68.56;99491.10;102796;1326;25360;-81
2021/12/29 01:33:22;;;;;;;23.80;14.60;;;;;;;-2.30;68.55;99490.31;103228;1323;25280;-80
2021/12/29 01:35:49;;;;;;;22.60;14.80;;;;;;;-2.22;68.40;99485.36;103083;1322;22606;-80
2021/12/29 01:38:16;;;;;;;24.70;15.50;;;;;;;-2.19;68.15;99481.48;103092;1323;22752;-77
2021/12/29 01:40:48;;;;;;;24.40;14.90;;;;;;;-2.18;68.04;99483.04;102709;1329;24777;-76
2021/12/29 01:43:17;;;;;;;25.30;14.70;;;;;;;-2.19;68.07;99481.65;102491;1329;25775;-77
2021/12/29 01:45:45;;;;;;;24.20;15.20;;;;;;;-2.22;67.79;99480.17;102469;1330;24170;-77
2021/12/29 01:48:12;;;;;;;23.70;14.10;;;;;;;-2.27;67.98;99482.81;102466;1329;25403;-78
2021/12/29 01:50:40;;;;;;;22.60;14.90;;;;;;;-2.27;68.10;99482.80;102162;1330;22596;-76
2021/12/29 01:53:09;;;;;;;20.20;13.00;;;;;;;-2.29;68.00;99486.02;102266;1328;22595;-75
2021/12/29 01:55:38;;;;;;;24.20;14.70;;;;;;;-2.32;67.94;99485.08;102717;1328;23220;-75
2021/12/29 01:58:07;;;;;;;22.20;14.20;;;;;;;-2.33;68.14;99485.92;102181;1330;22793;-76
2021/12/29 02:00:37;;;;;;;26.50;16.60;;;;;;;-2.32;68.05;99489.55;102713;1329;22599;-77
2021/12/29 02:03:07;;;;;;;27.80;15.80;;;;;;;-2.32;68.11;99490.59;102355;1330;25525;-76
2021/12/29 02:05:36;;;;;;;27.00;15.50;;;;;;;-2.34;68.29;99486.59;102566;1325;23065;-75
2021/12/29 02:08:05;;;;;;;25.70;16.60;;;;;;;-2.30;68.38;99487.91;102513;1328;24249;-78
2021/12/29 02:10:41;;;;;;;23.60;15.00;;;;;;;-2.23;68.44;99487.92;102528;1328;24085;-80
2021/12/29 02:13:12;;;;;;;25.40;15.20;;;;;;;-2.14;68.55;99480.76;102759;1328;25541;-81
2021/12/29 02:15:40;;;;;;;21.70;13.70;;;;;;;-2.05;68.39;99478.75;101931;1329;25735;-80
2021/12/29 02:18:15;;;;;;;21.30;13.60;;;;;;;-2.07;67.98;99473.02;102344;1330;23322;-81
2021/12/29 02:20:47;;;;;;;19.00;12.60;;;;;;;-2.07;68.22;99469.04;102263;1330;22935;-81
2021/12/29 02:23:26;;;;;;;20.50;13.60;;;;;;;-2.07;68.01;99470.24;102357;1330;24361;-83
2021/12/29 02:25:56;;;;;;;21.70;13.40;;;;;;;-2.09;68.02;99464.30;102191;1330;25322;-80
2021/12/29 02:28:23;;;;;;;22.20;13.60;;;;;;;-2.15;68.13;99467.61;102195;1332;22596;-80
2021/12/29 02:30:51;;;;;;;23.30;14.50;;;;;;;-2.18;68.14;99458.72;102283;1332;24336;-81
2021/12/29 02:33:18;;;;;;;20.10;13.90;;;;;;;-2.19;68.19;99452.84;102295;1325;25376;-80
2021/12/29 02:35:45;;;;;;;23.10;14.10;;;;;;;-2.16;68.27;99456.54;102965;1325;24376;-81
2021/12/29 02:38:25;;;;;;;22.30;14.30;;;;;;;-2.13;68.10;99457.14;103056;1323;22599;-81
2021/12/29 02:40:56;;;;;;;20.40;13.50;;;;;;;-2.16;67.97;99455.85;103147;1322;26534;-80
2021/12/29 02:43:24;;;;;;;20.70;13.80;;;;;;;-2.21;68.14;99457.79;103145;1323;24459;-82
2021/12/29 02:45:58;;;;;;;23.60;14.80;;;;;;;-2.18;68.31;99455.27;103070;1322;26546;-79
2021/12/29 02:48:30;;;;;;;20.30;12.70;;;;;;;-2.13;68.34;99457.50;102774;1326;25540;-83
2021/12/29 02:50:59;;;;;;;25.00;14.80;;;;;;;-2.08;68.33;99458.66;102694;1329;22605;-80
2021/12/29 02:53:29;;;;;;;24.00;14.50;;;;;;;-2.06;68.07;99456.27;102767;1323;24514;-80
2021/12/29 02:55:56;;;;;;;23.00;14.90;;;;;;;-2.06;68.35;99462.85;102791;1325;22598;-80
2021/12/29 02:58:24;;;;;;;26.20;15.70;;;;;;;-2.03;68.21;99459.14;103024;1325;25239;-81
2021/12/29 03:00:54;;;;;;;23.70;15.50;;;;;;;-2.05;68.13;99460.63;102709;1325;25251;-83
2021/12/29 03:03:25;;;;;;;21.60;14.40;;;;;;;-2.07;68.19;99454.89;102945;1325;22743;-83
2021/12/29 03:05:53;;;;;;;22.20;13.80;;;;;;;-2.09;68.13;99457.42;103113;1322;23147;-83
2021/12/29 03:08:22;;;;;;;26.90;16.60;;;;;;;-2.14;68.19;99454.70;104906;1322;24238;-83
2021/12/29 03:10:53;;;;;;;20.40;12.90;;;;;;;-2.16;68.20;99456.01;103630;1322;25268;-82
2021/12/29 03:13:24;;;;;;;22.00;15.30;;;;;;;-2.18;68.30;99456.83;103155;1322;22647;-83
2021/12/29 03:15:51;;;;;;;23.60;15.50;;;;;;;-2.17;68.41;99451.67;103269;1319;23147;-82
2021/12/29 03:18:19;;;;;;;24.50;15.70;;;;;;;-2.18;68.17;99449.91;103749;1322;22947;-80
2021/12/29 03:20:47;;;;;;;26.40;16.60;;;;;;;-2.19;68.23;99454.56;103576;1322;25227;-80
2021/12/29 03:23:15;;;;;;;23.20;15.50;;;;;;;-2.20;68.23;99467.63;103926;1328;22616;-77
2021/12/29 03:25:42;;;;;;;24.20;15.10;;;;;;;-2.18;68.36;99461.48;104783;1325;23133;-77
2021/12/29 03:28:10;;;;;;;23.70;15.00;;;;;;;-2.14;68.36;99454.52;104689;1328;22960;-76
2021/12/29 03:30:41;;;;;;;22.60;15.10;;;;;;;-2.07;68.32;99460.56;104597;1324;22550;-79
2021/12/29 03:33:09;;;;;;;23.40;15.60;;;;;;;-2.01;68.40;99460.75;103044;1328;24243;-80
2021/12/29 03:35:40;;;;;;;23.00;14.60;;;;;;;-1.94;68.24;99465.40;103207;1328;25261;-80
2021/12/29 03:38:10;;;;;;;21.90;14.20;;;;;;;-1.92;68.12;99465.79;103400;1325;22878;-79
2021/12/29 03:40:39;;;;;;;28.60;16.10;;;;;;;-1.91;68.05;99467.89;103967;1322;25370;-78
2021/12/29 03:43:08;;;;;;;23.50;14.40;;;;;;;-1.89;68.15;99469.66;104877;1322;22625;-79
2021/12/29 03:45:37;;;;;;;24.50;14.50;;;;;;;-1.84;68.20;99469.63;104029;1322;25259;-78
2021/12/29 03:48:05;;;;;;;25.00;15.90;;;;;;;-1.79;68.14;99470.62;103423;1322;23435;-80
2021/12/29 03:50:33;;;;;;;22.00;13.90;;;;;;;-1.78;68.06;99469.95;103029;1322;25262;-79
2021/12/29 03:53:01;;;;;;;22.70;14.80;;;;;;;-1.79;67.96;99470.47;103378;1322;22654;-80
2021/12/29 03:55:29;;;;;;;24.20;14.00;;;;;;;-1.78;67.98;99473.23;103253;1322;25557;-80
2021/12/29 03:57:56;;;;;;;22.50;13.50;;;;;;;-1.74;68.06;99476.11;103124;1322;22699;-78
2021/12/29 04:00:23;;;;;;;21.60;14.20;;;;;;;-1.71;67.93;99471.16;103295;1322;22775;-80
2021/12/29 04:02:50;;;;;;;21.20;13.80;;;;;;;-1.75;67.67;99463.83;104455;1322;22625;-80
2021/12/29 04:05:21;;;;;;;22.50;14.50;;;;;;;-1.78;67.65;99461.84;104537;1322;22664;-82
2021/12/29 04:07:49;;;;;;;22.00;12.50;;;;;;;-1.79;67.92;99455.09;103810;1328;22626;-81
2021/12/29 04:10:16;;;;;;;22.00;14.90;;;;;;;-1.80;67.76;99455.25;103645;1328;22695;-81
2021/12/29 04:12:43;;;;;;;24.20;15.80;;;;;;;-1.77;67.98;99454.97;102788;1328;24013;-82
2021/12/29 04:15:12;;;;;;;23.90;14.30;;;;;;;-1.72;67.90;99455.77;103135;1328;25471;-81
2021/12/29 04:17:40;;;;;;;23.40;14.30;;;;;;;-1.66;67.80;99452.33;103039;1326;24287;-80
2021/12/29 04:22:57;;;;;;;28.00;16.00;;;;;;;-1.67;67.60;99456.09;103589;1328;22526;-78
2021/12/29 04:25:25;;;;;;;21.10;14.50;;;;;;;-1.68;67.68;99454.84;103513;1325;26055;-80
2021/12/29 04:27:54;;;;;;;23.40;14.50;;;;;;;-1.73;67.67;99455.40;103314;1322;24221;-80
2021/12/29 04:30:23;;;;;;;19.10;13.40;;;;;;;-1.75;67.78;99451.21;103412;1322;22827;-82
2021/12/29 04:32:52;;;;;;;21.90;14.60;;;;;;;-1.80;67.74;99456.47;103346;1322;25523;-83
2021/12/29 04:35:23;;;;;;;24.60;14.30;;;;;;;-1.84;67.72;99454.80;103242;1322;24270;-82
2021/12/29 04:37:52;;;;;;;24.50;13.90;;;;;;;-1.91;67.89;99449.61;103062;1322;24232;-82
2021/12/29 04:40:20;;;;;;;24.90;14.90;;;;;;;-1.92;67.78;99450.61;104211;1322;24216;-81
2021/12/29 04:42:48;;;;;;;23.80;15.00;;;;;;;-1.99;67.72;99455.77;104106;1329;22655;-86
2021/12/29 04:45:16;;;;;;;25.60;14.50;;;;;;;-2.06;67.91;99449.91;104206;1330;26672;-81
2021/12/29 04:47:46;;;;;;;26.20;16.10;;;;;;;-2.04;68.06;99445.14;103794;1329;22668;-78
2021/12/29 04:50:25;;;;;;;18.60;11.50;;;;;;;-1.99;68.33;99445.08;103421;1328;25422;-77
2021/12/29 04:52:56;;;;;;;25.90;16.20;;;;;;;-1.97;67.98;99447.54;103236;1329;23267;-80
2021/12/29 04:55:24;;;;;;;26.40;16.30;;;;;;;-2.01;68.03;99444.02;102756;1329;22543;-82
2021/12/29 04:57:51;;;;;;;22.00;15.90;;;;;;;-1.96;68.18;99445.34;102508;1330;22721;-79
2021/12/29 05:00:26;;;;;;;28.60;17.40;;;;;;;-1.95;67.97;99440.70;102394;1322;22809;-78
2021/12/29 05:02:54;;;;;;;23.80;15.90;;;;;;;-1.95;68.09;99445.02;103071;1322;23178;-81
2021/12/29 05:08:25;;;;;;;23.70;16.00;;;;;;;-1.89;68.25;99448.29;103306;1322;22773;-82
2021/12/29 05:08:25;;;;;;;24.10;15.90;;;;;;;-1.93;68.27;99445.77;103323;1322;24269;-83
2021/12/29 05:10:55;;;;;;;26.10;15.70;;;;;;;-1.87;68.19;99450.92;103213;1322;22646;-81
2021/12/29 05:13:22;;;;;;;24.20;16.60;;;;;;;-1.88;68.18;99451.75;103315;1322;23255;-84
2021/12/29 05:15:49;;;;;;;24.30;15.00;;;;;;;-1.91;68.10;99449.10;103147;1322;22664;-83
2021/12/29 05:18:16;;;;;;;26.00;17.20;;;;;;;-1.98;67.95;99442.52;103077;1322;22580;-84
2021/12/29 05:20:44;;;;;;;23.70;15.00;;;;;;;-2.07;67.77;99441.09;103279;1316;23275;-83
2021/12/29 05:23:11;;;;;;;24.10;16.80;;;;;;;-2.13;68.03;99447.81;103497;1321;25952;-84
2021/12/29 05:25:38;;;;;;;21.90;14.50;;;;;;;-2.18;68.18;99454.41;103154;1323;25255;-84
2021/12/29 05:28:06;;;;;;;32.80;18.10;;;;;;;-2.17;68.31;99454.27;103304;1323;22596;-82
2021/12/29 05:30:33;;;;;;;25.00;16.70;;;;;;;-2.25;68.17;99456.30;103029;1322;23203;-84
2021/12/29 05:33:01;;;;;;;26.00;16.50;;;;;;;-2.23;68.48;99452.36;103274;1322;22564;-84
2021/12/29 05:35:29;;;;;;;29.30;16.90;;;;;;;-2.22;68.33;99458.95;103100;1323;24248;-85
2021/12/29 05:37:56;;;;;;;30.00;16.80;;;;;;;-2.23;68.46;99465.83;102661;1330;24780;-84
2021/12/29 05:40:25;;;;;;;25.50;16.20;;;;;;;-2.21;68.49;99466.73;102450;1329;22605;-83
2021/12/29 05:42:52;;;;;;;28.20;17.20;;;;;;;-2.22;68.42;99465.69;102689;1328;22685;-84
2021/12/29 05:45:19;;;;;;;25.40;15.20;;;;;;;-2.26;68.41;99466.63;102415;1333;24310;-85
2021/12/29 05:47:48;;;;;;;23.80;16.20;;;;;;;-2.33;68.38;99468.16;102183;1336;24343;-82
2021/12/29 05:53:01;;;;;;;24.70;14.60;;;;;;;-2.34;68.56;99468.98;103646;1316;206675;-84
2021/12/29 05:55:28;;;;;;;22.70;13.40;;;;;;;-2.33;68.63;99473.16;102877;1325;24745;-85
2021/12/29 05:57:56;;;;;;;28.30;17.00;;;;;;;-2.35;68.63;99474.11;102932;1324;22692;-83
2021/12/29 06:00:25;;;;;;;28.40;17.00;;;;;;;-2.35;68.90;99473.11;102895;1325;24236;-85
2021/12/29 06:02:53;;;;;;;29.10;17.20;;;;;;;-2.29;69.01;99474.14;103004;1325;25445;-84
2021/12/29 06:05:21;;;;;;;24.70;14.80;;;;;;;-2.26;68.86;99473.70;103403;1323;24236;-83
2021/12/29 06:07:49;;;;;;;30.00;17.40;;;;;;;-2.26;68.69;99473.86;102915;1328;22710;-83
2021/12/29 06:10:16;;;;;;;31.10;17.70;;;;;;;-2.23;68.73;99475.48;102826;1329;22590;-82
2021/12/29 06:12:43;;;;;;;32.80;18.90;;;;;;;-2.17;68.82;99479.64;102682;1329;24967;-82
2021/12/29 06:15:10;;;;;;;32.80;18.50;;;;;;;-2.11;68.73;99482.73;102755;1327;24227;-78
2021/12/29 06:17:38;;;;;;;27.80;17.00;;;;;;;-2.05;68.70;99484.27;102142;1333;22600;-84
2021/12/29 06:20:08;;;;;;;29.90;17.90;;;;;;;-2.03;68.59;99483.44;102084;1333;25235;-83
2021/12/29 06:22:36;;;;;;;28.40;17.60;;;;;;;-2.04;68.59;99486.02;102127;1333;24023;-83
2021/12/29 06:25:05;;;;;;;30.50;15.00;;;;;;;-2.06;68.54;99491.67;102516;1333;22592;-83
2021/12/29 06:27:32;;;;;;;29.10;17.50;;;;;;;-2.09;68.40;99494.52;102444;1329;22585;-83
2021/12/29 06:29:59;;;;;;;28.40;17.30;;;;;;;-2.08;68.62;99496.77;102770;1330;22635;-82
2021/12/29 06:32:27;;;;;;;27.10;15.50;;;;;;;-2.06;68.60;99495.80;102349;1330;23110;-83
2021/12/29 06:34:55;;;;;;;27.40;15.50;;;;;;;-2.07;68.33;99502.67;103107;1325;25262;-83
2021/12/29 06:37:23;;;;;;;29.70;17.40;;;;;;;-2.11;68.52;99506.02;103116;1324;25360;-86
2021/12/29 06:39:51;;;;;;;24.90;14.20;;;;;;;-2.10;68.66;99510.35;103002;1325;23906;-86
2021/12/29 06:42:20;;;;;;;35.30;22.30;;;;;;;-2.08;68.61;99505.40;103224;1324;22713;-83
2021/12/29 06:44:48;;;;;;;30.90;17.90;;;;;;;-2.09;68.57;99511.06;103578;1323;22740;-86
2021/12/29 06:47:15;;;;;;;34.00;18.10;;;;;;;-2.12;68.72;99508.92;102996;1324;25356;-83
2021/12/29 06:49:44;;;;;;;30.60;17.80;;;;;;;-2.14;68.64;99511.29;102695;1330;24676;-86
2021/12/29 06:52:11;;;;;;;34.20;17.60;;;;;;;-2.14;68.61;99510.44;102535;1329;22630;-86
2021/12/29 06:54:39;;;;;;;30.90;18.00;;;;;;;-2.20;68.66;99507.85;103724;1329;22581;-87
2021/12/29 06:57:06;;;;;;;31.20;18.00;;;;;;;-2.20;68.69;99512.83;104919;1330;22716;-85
2021/12/29 06:59:35;;;;;;;34.60;20.00;;;;;;;-2.26;68.78;99514.58;104741;1328;22598;-85
2021/12/29 07:02:04;;;;;;;41.60;19.00;;;;;;;-2.31;69.08;99516.67;104540;1329;23020;-85
2021/12/29 07:04:32;;;;;;;35.70;19.30;;;;;;;-2.29;69.40;99516.04;104056;1333;22607;-85
2021/12/29 07:06:59;;;;;;;33.10;17.30;;;;;;;-2.26;69.20;99521.99;104037;1330;22466;-84
2021/12/29 07:09:27;;;;;;;37.60;20.60;;;;;;;-2.20;69.38;99526.28;104380;1336;25393;-84
2021/12/29 07:11:55;;;;;;;38.30;20.70;;;;;;;-2.19;69.03;99523.04;104715;1333;22624;-85
2021/12/29 07:14:26;;;;;;;42.10;21.10;;;;;;;-2.16;69.13;99523.13;104671;1333;22676;-84
2021/12/29 07:16:56;;;;;;;30.90;19.80;;;;;;;-2.09;69.26;99528.84;104360;1333;25403;-84
2021/12/29 07:19:25;;;;;;;35.60;21.50;;;;;;;-2.02;69.19;99529.75;104589;1336;22945;-84
2021/12/29 07:21:52;;;;;;;40.80;20.50;;;;;;;-2.00;68.77;99531.68;104936;1330;22594;-84
2021/12/29 07:24:20;;;;;;;37.60;19.40;;;;;;;-2.00;68.99;99527.56;103320;1329;25388;-86
2021/12/29 07:26:47;;;;;;;31.80;18.10;;;;;;;-1.99;68.95;99534.48;102503;1329;24819;-85
2021/12/29 07:29:15;;;;;;;32.70;18.70;;;;;;;-2.03;68.69;99535.92;102581;1329;25272;-85
2021/12/29 07:31:43;;;;;;;45.10;24.30;;;;;;;-2.17;68.79;99534.51;102914;1329;22652;-86
2021/12/29 07:34:35;;;;;;;31.70;17.30;;;;;;;-2.22;68.95;99529.70;102797;1325;24199;-85
2021/12/29 07:37:03;;;;;;;40.80;20.80;;;;;;;-2.26;69.25;99528.20;103251;1325;25255;-85
2021/12/29 07:39:30;;;;;;;40.80;22.30;;;;;;;-2.26;69.39;99524.05;103304;1323;24271;-86
2021/12/29 07:41:57;;;;;;;46.30;24.20;;;;;;;-2.25;69.50;99528.77;103024;1325;22600;-83
2021/12/29 07:44:28;;;;;;;50.20;24.60;;;;;;;-2.21;69.43;99529.20;103057;1324;22609;-86
2021/12/29 07:46:57;;;;;;;46.20;24.50;;;;;;;-2.25;69.37;99529.80;102830;1323;24258;-84
2021/12/29 07:49:25;;;;;;;45.50;23.20;;;;;;;-2.23;69.61;99533.45;103233;1322;24222;-84
2021/12/29 07:51:53;;;;;;;38.00;20.70;;;;;;;-2.19;69.57;99539.26;103182;1325;25370;-82
2021/12/29 07:54:22;;;;;;;40.80;21.60;;;;;;;-2.26;69.44;99536.64;103310;1323;24286;-85
2021/12/29 07:56:49;;;;;;;42.10;21.50;;;;;;;-2.26;69.92;99538.38;102307;1330;22728;-85
2021/12/29 07:59:19;;;;;;;45.90;24.70;;;;;;;-2.19;70.00;99539.77;102747;1332;24198;-85
2021/12/29 08:01:50;;;;;;;46.50;23.60;;;;;;;-2.18;69.83;99536.36;101780;1337;22847;-85
2021/12/29 08:04:19;;;;;;;41.70;22.90;;;;;;;-2.18;69.96;99530.83;101971;1336;22599;-84
2021/12/29 08:06:47;;;;;;;45.60;21.70;;;;;;;-2.15;69.75;99527.30;101630;1338;22618;-84
2021/12/29 08:09:14;;;;;;;51.30;24.50;;;;;;;-2.20;69.71;99528.02;101719;1336;22622;-85
2021/12/29 08:11:42;;;;;;;49.70;25.00;;;;;;;-2.15;70.04;99534.71;101671;1337;22761;-85
2021/12/29 08:14:10;;;;;;;47.40;25.50;;;;;;;-2.11;70.02;99532.59;101811;1333;23362;-84
2021/12/29 08:16:37;;;;;;;39.60;22.70;;;;;;;-2.02;70.19;99534.41;102592;1329;22605;-86
2021/12/29 08:19:05;;;;;;;42.90;23.30;;;;;;;-1.88;70.26;99535.61;102209;1325;25564;-85
2021/12/29 08:21:32;;;;;;;38.10;20.90;;;;;;;-1.80;69.92;99534.14;103061;1323;22633;-84
2021/12/29 08:24:00;;;;;;;43.30;22.70;;;;;;;-1.73;69.71;99532.76;102935;1323;22602;-86
2021/12/29 08:26:27;;;;;;;43.00;21.60;;;;;;;-1.72;69.48;99535.71;103170;1323;26550;-84
2021/12/29 08:28:57;;;;;;;39.70;22.60;;;;;;;-1.72;69.45;99533.98;103387;1325;25211;-86
2021/12/29 08:31:26;;;;;;;47.60;23.90;;;;;;;-1.69;69.48;99535.12;103281;1328;25215;-86
2021/12/29 08:33:55;;;;;;;34.10;20.30;;;;;;;-1.66;69.38;99534.83;102191;1333;24669;-85
2021/12/29 08:36:23;;;;;;;38.80;23.40;;;;;;;-1.70;69.22;99537.48;102386;1333;22770;-84
2021/12/29 08:38:51;;;;;;;40.10;21.50;;;;;;;-1.73;69.09;99537.41;101952;1336;24377;-86
2021/12/29 08:41:19;;;;;;;37.10;20.10;;;;;;;-1.80;69.30;99537.23;101939;1334;22622;-86
2021/12/29 08:43:47;;;;;;;43.00;23.00;;;;;;;-1.80;69.16;99531.72;102509;1333;24357;-85
2021/12/29 08:46:20;;;;;;;42.40;23.30;;;;;;;-1.81;69.25;99531.35;102031;1333;23384;-84
2021/12/29 08:49:05;;;;;;;46.10;25.80;;;;;;;-1.81;69.01;99533.92;101973;1333;24016;-86
2021/12/29 08:51:33;;;;;;;46.00;24.30;;;;;;;-1.90;69.10;99533.19;102525;1323;22852;-85
2021/12/29 08:54:09;;;;;;;39.70;23.70;;;;;;;-1.84;69.42;99530.91;102972;1323;22530;-86
2021/12/29 08:56:36;;;;;;;44.80;24.40;;;;;;;-1.83;69.33;99531.29;103257;1323;22696;-85
2021/12/29 08:59:04;;;;;;;44.60;26.40;;;;;;;-1.83;69.46;99535.25;103145;1323;25385;-83
2021/12/29 09:01:31;;;;;;;45.80;24.40;;;;;;;-1.79;69.44;99543.83;103168;1325;22614;-84
2021/12/29 09:03:58;;;;;;;37.30;21.70;;;;;;;-1.74;69.55;99544.48;103264;1323;22605;-84
2021/12/29 09:06:25;;;;;;;43.30;23.40;;;;;;;-1.73;69.50;99550.70;102605;1330;22815;-84
2021/12/29 09:08:54;;;;;;;50.10;25.40;;;;;;;-1.66;69.65;99556.44;102499;1330;22598;-83
2021/12/29 09:11:21;;;;;;;44.50;24.70;;;;;;;-1.59;69.41;99561.80;102590;1330;22630;-84
2021/12/29 09:13:48;;;;;;;45.90;23.10;;;;;;;-1.66;69.10;99558.50;102777;1330;22546;-85
2021/12/29 09:16:21;;;;;;;53.80;26.60;;;;;;;-1.67;69.23;99563.48;103471;1330;23470;-84
2021/12/29 09:18:49;;;;;;;56.50;28.20;;;;;;;-1.71;69.18;99562.52;103620;1329;22540;-84
2021/12/29 09:21:18;;;;;;;45.80;24.80;;;;;;;-1.60;69.45;99563.14;102320;1330;23495;-84
2021/12/29 09:23:48;;;;;;;46.00;24.60;;;;;;;-1.56;69.64;99566.71;102453;1325;22797;-86
2021/12/29 09:26:16;;;;;;;45.00;25.70;;;;;;;-1.47;69.57;99563.50;103387;1323;22608;-84
2021/12/29 09:28:46;;;;;;;40.30;23.90;;;;;;;-1.46;69.39;99565.92;103325;1323;22603;-84
2021/12/29 09:31:15;;;;;;;47.50;26.60;;;;;;;-1.38;69.48;99566.83;103112;1323;23137;-85
2021/12/29 09:33:43;;;;;;;42.70;22.80;;;;;;;-1.36;69.13;99561.69;103066;1323;23984;-85
2021/12/29 09:36:10;;;;;;;45.40;23.10;;;;;;;-1.46;68.71;99563.16;103171;1323;23043;-86
2021/12/29 09:38:40;;;;;;;44.90;25.00;;;;;;;-1.47;69.14;99558.32;103203;1323;25226;-85
2021/12/29 09:41:12;;;;;;;48.50;26.90;;;;;;;-1.42;69.17;99554.81;104626;1323;24302;-83
2021/12/29 09:43:40;;;;;;;48.00;26.20;;;;;;;-1.46;68.92;99553.48;105151;1323;22556;-84
2021/12/29 09:46:09;;;;;;;44.80;24.50;;;;;;;-1.51;68.90;99551.11;104917;1325;22558;-83
2021/12/29 09:48:38;;;;;;;49.00;27.00;;;;;;;-1.60;69.04;99545.70;105160;1323;23848;-84
2021/12/29 09:51:08;;;;;;;56.00;29.10;;;;;;;-1.55;69.31;99537.70;105053;1325;25375;-83
2021/12/29 09:53:35;;;;;;;49.60;28.50;;;;;;;-1.51;69.16;99536.13;105119;1323;26005;-83
2021/12/29 09:56:09;;;;;;;50.50;26.30;;;;;;;-1.47;69.25;99541.54;105561;1323;24290;-83
2021/12/29 09:58:40;;;;;;;43.90;25.90;;;;;;;-1.39;69.49;99541.23;105485;1323;22651;-83
2021/12/29 10:01:10;;;;;;;52.10;28.20;;;;;;;-1.37;69.05;99548.89;104273;1330;22518;-83
2021/12/29 10:03:39;;;;;;;41.90;24.60;;;;;;;-1.36;69.33;99545.98;104014;1336;22646;-84
2021/12/29 10:06:08;;;;;;;50.40;25.90;;;;;;;-1.29;69.35;99545.13;104653;1336;22441;-84
2021/12/29 10:08:47;;;;;;;50.00;24.80;;;;;;;-1.23;69.39;99542.32;103298;1333;23972;-84
2021/12/29 10:11:19;;;;;;;48.10;26.50;;;;;;;-1.18;69.20;99534.49;102974;1336;22669;-83
2021/12/29 10:13:48;;;;;;;50.80;27.30;;;;;;;-1.15;69.04;99538.02;102572;1336;22612;-85
2021/12/29 10:16:38;;;;;;;46.00;26.40;;;;;;;-1.20;68.95;99543.95;102339;1330;22668;-84
2021/12/29 10:19:19;;;;;;;41.70;21.90;;;;;;;-1.22;68.99;99547.02;102445;1329;25379;-85
2021/12/29 10:21:48;;;;;;;51.30;27.80;;;;;;;-1.25;68.81;99544.70;102857;1323;25330;-84
2021/12/29 10:24:20;;;;;;;55.50;27.20;;;;;;;-1.22;69.32;99541.65;103281;1324;22609;-85
2021/12/29 10:26:55;;;;;;;54.40;29.00;;;;;;;-1.17;69.29;99540.40;103687;1323;22719;-84
2021/12/29 10:29:49;;;;;;;52.20;28.50;;;;;;;-1.08;69.38;99538.71;104045;1323;25408;-84
2021/12/29 10:32:24;;;;;;;52.30;26.90;;;;;;;-0.98;69.25;99550.19;104077;1323;22608;-84
2021/12/29 10:34:53;;;;;;;54.80;27.70;;;;;;;-0.91;69.00;99551.73;104689;1323;22625;-84
2021/12/29 10:37:23;;;;;;;51.50;25.70;;;;;;;-0.98;68.72;99549.67;104710;1323;22658;-83
2021/12/29 10:39:55;;;;;;;52.00;26.30;;;;;;;-1.00;68.72;99548.95;105544;1323;25358;-83
2021/12/29 10:42:25;;;;;;;47.20;27.70;;;;;;;-1.10;68.58;99542.11;105700;1323;22606;-82
2021/12/29 10:45:00;;;;;;;41.90;21.90;;;;;;;-1.11;69.01;99536.90;104597;1324;22596;-82
2021/12/29 10:47:33;;;;;;;47.00;25.70;;;;;;;-1.16;68.84;99538.71;103799;1323;22587;-83
2021/12/29 10:50:10;;;;;;;47.30;26.50;;;;;;;-1.11;69.11;99535.36;103384;1323;22585;-84
2021/12/29 10:52:59;;;;;;;48.90;28.00;;;;;;;-1.05;69.10;99536.36;103298;1317;22838;-84
2021/12/29 10:55:34;;;;;;;49.40;26.50;;;;;;;-1.06;68.95;99539.98;102702;1329;22675;-86
2021/12/29 10:58:27;;;;;;;59.80;31.50;;;;;;;-1.06;68.80;99537.23;102548;1327;26527;-85
2021/12/29 11:01:05;;;;;;;61.10;31.50;;;;;;;-1.05;68.91;99538.81;102357;1329;25262;-85
2021/12/29 11:04:00;;;;;;;54.30;27.50;;;;;;;-1.07;68.63;99538.40;102679;1329;24679;-85
2021/12/29 11:07:01;;;;;;;64.00;30.40;;;;;;;-1.00;69.07;99537.88;102102;1335;24020;-84
2021/12/29 11:09:33;;;;;;;53.40;27.20;;;;;;;-0.90;68.81;99535.86;102943;1336;22620;-84
2021/12/29 11:15:19;;;;;;;53.60;28.10;;;;;;;-0.77;68.74;99535.98;101592;1339;24375;-84
2021/12/29 11:17:47;;;;;;;63.00;28.50;;;;;;;-0.73;68.58;99534.50;101812;1339;22744;-84
2021/12/29 11:20:22;;;;;;;55.90;28.10;;;;;;;-0.73;68.74;99537.64;102661;1339;24257;-84
2021/12/29 11:22:50;;;;;;;50.40;27.10;;;;;;;-0.69;68.51;99533.91;102936;1339;23140;-84
2021/12/29 11:25:37;;;;;;;57.80;29.90;;;;;;;-0.62;68.56;99533.91;102761;1333;22706;-86
2021/12/29 11:28:05;;;;;;;49.60;26.80;;;;;;;-0.60;68.32;99535.86;101668;1339;22808;-86
2021/12/29 11:30:34;;;;;;;47.00;27.70;;;;;;;-0.57;68.39;99531.25;101669;1339;23992;-84
2021/12/29 11:33:10;;;;;;;52.10;29.60;;;;;;;-0.56;68.05;99530.41;102889;1329;23013;-84
2021/12/29 11:35:41;;;;;;;;;;;;;;;-0.66;68.05;99531.22;102659;1329;22518;-85